sensor_id;sensor_type;location;lat;lon;timestamp;pressure;altitude;pressure_sealevel;temperature;humidity
64362;BME280;50685;53.346;-6.296;2023-01-29T00:00:29;102928.78;;;5.72;93.14
64362;BME280;50685;53.346;-6.296;2023-01-29T00:02:54;102919.03;;;5.70;92.87
64362;BME280;50685;53.346;-6.296;2023-01-29T00:05:19;102915.59;;;5.71;92.51
64362;BME280;50685;53.346;-6.296;2023-01-29T00:07:44;102903.31;;;5.71;92.37
64362;BME280;50685;53.346;-6.296;2023-01-29T00:10:10;102906.91;;;5.73;92.33
64362;BME280;50685;53.346;-6.296;2023-01-29T00:12:35;102912.22;;;5.75;92.20
64362;BME280;50685;53.346;-6.296;2023-01-29T00:15:00;102903.38;;;5.73;91.76
64362;BME280;50685;53.346;-6.296;2023-01-29T00:17:26;102906.84;;;5.72;91.43
64362;BME280;50685;53.346;-6.296;2023-01-29T00:19:52;102908.56;;;5.71;91.52
64362;BME280;50685;53.346;-6.296;2023-01-29T00:22:17;102902.41;;;5.71;91.22
64362;BME280;50685;53.346;-6.296;2023-01-29T00:24:43;102913.00;;;5.72;91.84
64362;BME280;50685;53.346;-6.296;2023-01-29T00:27:08;102902.53;;;5.74;91.60
64362;BME280;50685;53.346;-6.296;2023-01-29T00:29:33;102902.47;;;5.72;91.47
64362;BME280;50685;53.346;-6.296;2023-01-29T00:31:59;102906.91;;;5.73;91.15
64362;BME280;50685;53.346;-6.296;2023-01-29T00:34:24;102908.66;;;5.73;91.25
64362;BME280;50685;53.346;-6.296;2023-01-29T00:36:49;102913.06;;;5.74;90.91
64362;BME280;50685;53.346;-6.296;2023-01-29T00:39:14;102920.13;;;5.75;90.76
64362;BME280;50685;53.346;-6.296;2023-01-29T00:41:40;102918.31;;;5.74;90.65
64362;BME280;50685;53.346;-6.296;2023-01-29T00:44:24;102921.81;;;5.73;91.06
64362;BME280;50685;53.346;-6.296;2023-01-29T00:47:08;102918.16;;;5.69;90.89
64362;BME280;50685;53.346;-6.296;2023-01-29T00:49:53;102917.31;;;5.70;91.25
64362;BME280;50685;53.346;-6.296;2023-01-29T00:52:18;102912.06;;;5.70;91.69
64362;BME280;50685;53.346;-6.296;2023-01-29T00:54:50;102914.69;;;5.70;92.01
64362;BME280;50685;53.346;-6.296;2023-01-29T00:57:15;102909.47;;;5.72;92.00
64362;BME280;50685;53.346;-6.296;2023-01-29T00:59:41;102906.78;;;5.70;92.30
64362;BME280;50685;53.346;-6.296;2023-01-29T01:02:06;102908.50;;;5.70;92.11
64362;BME280;50685;53.346;-6.296;2023-01-29T01:04:50;102902.38;;;5.69;92.39
64362;BME280;50685;53.346;-6.296;2023-01-29T01:07:15;102890.84;;;5.67;92.62
64362;BME280;50685;53.346;-6.296;2023-01-29T01:09:40;102886.47;;;5.68;92.65
64362;BME280;50685;53.346;-6.296;2023-01-29T01:12:24;102889.97;;;5.67;92.65
64362;BME280;50685;53.346;-6.296;2023-01-29T01:14:49;102882.91;;;5.66;92.38
64362;BME280;50685;53.346;-6.296;2023-01-29T01:17:15;102885.44;;;5.64;92.33
64362;BME280;50685;53.346;-6.296;2023-01-29T01:19:40;102881.94;;;5.63;92.26
64362;BME280;50685;53.346;-6.296;2023-01-29T01:22:06;102885.41;;;5.62;92.30
64362;BME280;50685;53.346;-6.296;2023-01-29T01:24:31;102883.53;;;5.60;91.97
64362;BME280;50685;53.346;-6.296;2023-01-29T01:26:56;102886.16;;;5.60;91.70
64362;BME280;50685;53.346;-6.296;2023-01-29T01:29:22;102877.38;;;5.59;91.45
64362;BME280;50685;53.346;-6.296;2023-01-29T01:31:47;102872.94;;;5.58;91.17
64362;BME280;50685;53.346;-6.296;2023-01-29T01:34:12;102864.13;;;5.58;90.97
64362;BME280;50685;53.346;-6.296;2023-01-29T01:36:38;102865.75;;;5.54;89.85
64362;BME280;50685;53.346;-6.296;2023-01-29T01:39:03;102859.59;;;5.54;88.95
64362;BME280;50685;53.346;-6.296;2023-01-29T01:41:28;102860.47;;;5.54;88.21
64362;BME280;50685;53.346;-6.296;2023-01-29T01:43:55;102856.19;;;5.56;88.18
64362;BME280;50685;53.346;-6.296;2023-01-29T01:46:22;102857.00;;;5.55;88.33
64362;BME280;50685;53.346;-6.296;2023-01-29T01:48:49;102858.03;;;5.59;88.81
64362;BME280;50685;53.346;-6.296;2023-01-29T01:51:17;102857.16;;;5.58;89.17
64362;BME280;50685;53.346;-6.296;2023-01-29T01:53:44;102852.72;;;5.57;90.15
64362;BME280;50685;53.346;-6.296;2023-01-29T01:56:13;102843.94;;;5.57;90.69
64362;BME280;50685;53.346;-6.296;2023-01-29T01:58:47;102846.50;;;5.55;91.19
64362;BME280;50685;53.346;-6.296;2023-01-29T02:01:15;102849.06;;;5.54;91.53
64362;BME280;50685;53.346;-6.296;2023-01-29T02:03:45;102858.72;;;5.53;92.25
64362;BME280;50685;53.346;-6.296;2023-01-29T02:06:30;102850.63;;;5.49;92.80
64362;BME280;50685;53.346;-6.296;2023-01-29T02:12:03;102858.19;;;5.41;94.01
64362;BME280;50685;53.346;-6.296;2023-01-29T02:14:29;102853.81;;;5.41;94.04
64362;BME280;50685;53.346;-6.296;2023-01-29T02:16:56;102852.06;;;5.42;94.14
64362;BME280;50685;53.346;-6.296;2023-01-29T02:21:53;102856.41;;;5.40;94.60
64362;BME280;50685;53.346;-6.296;2023-01-29T02:24:31;102850.22;;;5.39;94.76
64362;BME280;50685;53.346;-6.296;2023-01-29T02:27:06;102844.84;;;5.36;94.79
64362;BME280;50685;53.346;-6.296;2023-01-29T02:29:35;102846.66;;;5.37;94.70
64362;BME280;50685;53.346;-6.296;2023-01-29T02:37:44;102826.16;;;5.30;94.87
64362;BME280;50685;53.346;-6.296;2023-01-29T02:40:17;102820.00;;;5.29;94.89
64362;BME280;50685;53.346;-6.296;2023-01-29T02:42:50;102813.91;;;5.30;94.39
64362;BME280;50685;53.346;-6.296;2023-01-29T02:45:18;102811.31;;;5.32;94.51
64362;BME280;50685;53.346;-6.296;2023-01-29T02:47:57;102813.91;;;5.30;93.97
64362;BME280;50685;53.346;-6.296;2023-01-29T02:50:25;102799.03;;;5.31;94.23
64362;BME280;50685;53.346;-6.296;2023-01-29T02:53:00;102800.69;;;5.29;93.72
64362;BME280;50685;53.346;-6.296;2023-01-29T02:57:55;102791.91;;;5.28;94.59
64362;BME280;50685;53.346;-6.296;2023-01-29T03:00:23;102800.53;;;5.26;94.68
64362;BME280;50685;53.346;-6.296;2023-01-29T03:02:55;102788.25;;;5.25;95.14
64362;BME280;50685;53.346;-6.296;2023-01-29T03:05:33;102783.69;;;5.21;95.23
64362;BME280;50685;53.346;-6.296;2023-01-29T03:08:03;102781.78;;;5.17;95.46
64362;BME280;50685;53.346;-6.296;2023-01-29T03:10:38;102786.00;;;5.13;95.60
64362;BME280;50685;53.346;-6.296;2023-01-29T03:15:52;102783.13;;;5.07;95.64
64362;BME280;50685;53.346;-6.296;2023-01-29T03:18:25;102778.56;;;5.03;95.69
64362;BME280;50685;53.346;-6.296;2023-01-29T03:20:56;102768.88;;;5.02;95.74
64362;BME280;50685;53.346;-6.296;2023-01-29T03:23:24;102769.56;;;4.97;96.07
64362;BME280;50685;53.346;-6.296;2023-01-29T03:26:09;102767.50;;;4.90;96.23
64362;BME280;50685;53.346;-6.296;2023-01-29T03:28:54;102764.81;;;4.89;96.27
64362;BME280;50685;53.346;-6.296;2023-01-29T03:31:38;102762.84;;;4.83;96.03
64362;BME280;50685;53.346;-6.296;2023-01-29T03:34:22;102762.97;;;4.86;96.58
64362;BME280;50685;53.346;-6.296;2023-01-29T03:39:19;102760.38;;;4.88;95.09
64362;BME280;50685;53.346;-6.296;2023-01-29T03:41:52;102761.38;;;4.90;94.72
64362;BME280;50685;53.346;-6.296;2023-01-29T03:46:52;102754.34;;;4.90;93.32
64362;BME280;50685;53.346;-6.296;2023-01-29T03:57:01;102730.22;;;4.99;90.73
64362;BME280;50685;53.346;-6.296;2023-01-29T03:59:32;102730.31;;;5.02;90.64
64362;BME280;50685;53.346;-6.296;2023-01-29T04:02:01;102723.34;;;5.03;89.75
64362;BME280;50685;53.346;-6.296;2023-01-29T04:04:32;102722.38;;;5.01;89.06
64362;BME280;50685;53.346;-6.296;2023-01-29T04:07:09;102714.50;;;5.01;88.92
64362;BME280;50685;53.346;-6.296;2023-01-29T04:09:44;102713.47;;;4.97;88.58
64362;BME280;50685;53.346;-6.296;2023-01-29T04:12:12;102702.69;;;4.91;88.15
64362;BME280;50685;53.346;-6.296;2023-01-29T04:14:38;102702.53;;;4.88;88.35
64362;BME280;50685;53.346;-6.296;2023-01-29T04:17:17;102697.19;;;4.85;87.97
64362;BME280;50685;53.346;-6.296;2023-01-29T04:19:44;102699.88;;;4.86;87.67
64362;BME280;50685;53.346;-6.296;2023-01-29T04:22:14;102694.66;;;4.88;87.08
64362;BME280;50685;53.346;-6.296;2023-01-29T04:24:43;102695.50;;;4.87;86.18
64362;BME280;50685;53.346;-6.296;2023-01-29T04:27:16;102685.13;;;4.90;86.40
64362;BME280;50685;53.346;-6.296;2023-01-29T04:37:17;102676.16;;;4.85;85.75
64362;BME280;50685;53.346;-6.296;2023-01-29T04:39:53;102680.38;;;4.81;85.09
64362;BME280;50685;53.346;-6.296;2023-01-29T04:42:27;102681.16;;;4.78;84.66
64362;BME280;50685;53.346;-6.296;2023-01-29T04:45:05;102672.34;;;4.78;84.97
64362;BME280;50685;53.346;-6.296;2023-01-29T04:47:36;102676.66;;;4.76;84.88
64362;BME280;50685;53.346;-6.296;2023-01-29T04:52:45;102663.28;;;4.70;84.80
64362;BME280;50685;53.346;-6.296;2023-01-29T05:02:36;102668.19;;;4.62;85.19
64362;BME280;50685;53.346;-6.296;2023-01-29T05:05:03;102672.50;;;4.60;85.30
64362;BME280;50685;53.346;-6.296;2023-01-29T05:07:30;102665.44;;;4.59;85.12
64362;BME280;50685;53.346;-6.296;2023-01-29T05:09:56;102668.91;;;4.58;85.35
64362;BME280;50685;53.346;-6.296;2023-01-29T05:12:21;102665.31;;;4.56;85.24
64362;BME280;50685;53.346;-6.296;2023-01-29T05:14:50;102671.53;;;4.58;85.12
64362;BME280;50685;53.346;-6.296;2023-01-29T05:17:17;102666.22;;;4.56;85.43
64362;BME280;50685;53.346;-6.296;2023-01-29T05:19:43;102657.41;;;4.56;85.41
64362;BME280;50685;53.346;-6.296;2023-01-29T05:22:10;102653.91;;;4.55;85.48
64362;BME280;50685;53.346;-6.296;2023-01-29T05:24:37;102649.53;;;4.56;85.72
64362;BME280;50685;53.346;-6.296;2023-01-29T05:27:02;102641.78;;;4.59;85.74
64362;BME280;50685;53.346;-6.296;2023-01-29T05:29:46;102641.91;;;4.62;86.09
64362;BME280;50685;53.346;-6.296;2023-01-29T05:32:11;102636.78;;;4.65;85.84
64362;BME280;50685;53.346;-6.296;2023-01-29T05:34:37;102620.06;;;4.63;86.12
64362;BME280;50685;53.346;-6.296;2023-01-29T05:37:02;102628.34;;;4.72;86.27
64362;BME280;50685;53.346;-6.296;2023-01-29T05:39:28;102635.50;;;4.76;86.36
64362;BME280;50685;53.346;-6.296;2023-01-29T05:41:53;102625.13;;;4.79;86.51
64362;BME280;50685;53.346;-6.296;2023-01-29T05:44:18;102625.22;;;4.82;86.78
64362;BME280;50685;53.346;-6.296;2023-01-29T05:46:44;102626.25;;;4.86;86.74
64362;BME280;50685;53.346;-6.296;2023-01-29T05:49:10;102619.38;;;4.90;86.91
64362;BME280;50685;53.346;-6.296;2023-01-29T05:51:35;102615.16;;;4.93;87.15
64362;BME280;50685;53.346;-6.296;2023-01-29T05:54:00;102623.16;;;4.96;87.25
64362;BME280;50685;53.346;-6.296;2023-01-29T05:56:26;102615.19;;;4.95;87.69
64362;BME280;50685;53.346;-6.296;2023-01-29T05:58:51;102625.88;;;4.98;87.86
64362;BME280;50685;53.346;-6.296;2023-01-29T06:01:18;102622.25;;;4.96;88.39
64362;BME280;50685;53.346;-6.296;2023-01-29T06:03:44;102616.13;;;4.95;88.71
64362;BME280;50685;53.346;-6.296;2023-01-29T06:06:09;102619.63;;;4.96;89.29
64362;BME280;50685;53.346;-6.296;2023-01-29T06:08:35;102613.41;;;4.94;89.69
64362;BME280;50685;53.346;-6.296;2023-01-29T06:11:00;102602.78;;;4.91;90.04
64362;BME280;50685;53.346;-6.296;2023-01-29T06:13:25;102609.84;;;4.92;89.82
64362;BME280;50685;53.346;-6.296;2023-01-29T06:15:51;102609.69;;;4.89;90.12
64362;BME280;50685;53.346;-6.296;2023-01-29T06:18:16;102595.59;;;4.87;90.31
64362;BME280;50685;53.346;-6.296;2023-01-29T06:20:41;102591.09;;;4.84;90.62
64362;BME280;50685;53.346;-6.296;2023-01-29T06:23:07;102609.59;;;4.86;90.45
64362;BME280;50685;53.346;-6.296;2023-01-29T06:25:32;102607.84;;;4.86;90.19
64362;BME280;50685;53.346;-6.296;2023-01-29T06:27:57;102608.81;;;4.88;90.29
64362;BME280;50685;53.346;-6.296;2023-01-29T06:30:22;102603.47;;;4.87;90.23
64362;BME280;50685;53.346;-6.296;2023-01-29T06:32:48;102599.19;;;4.89;90.47
64362;BME280;50685;53.346;-6.296;2023-01-29T06:35:13;102603.56;;;4.88;90.47
64362;BME280;50685;53.346;-6.296;2023-01-29T06:37:38;102599.09;;;4.86;90.54
64362;BME280;50685;53.346;-6.296;2023-01-29T06:40:04;102606.09;;;4.87;90.93
64362;BME280;50685;53.346;-6.296;2023-01-29T06:42:29;102602.66;;;4.88;91.10
64362;BME280;50685;53.346;-6.296;2023-01-29T06:44:54;102613.25;;;4.89;91.11
64362;BME280;50685;53.346;-6.296;2023-01-29T06:47:20;102607.84;;;4.86;91.43
64362;BME280;50685;53.346;-6.296;2023-01-29T06:49:45;102612.28;;;4.87;91.54
64362;BME280;50685;53.346;-6.296;2023-01-29T06:52:10;102602.66;;;4.88;91.76
64362;BME280;50685;53.346;-6.296;2023-01-29T06:54:35;102590.34;;;4.87;91.72
64362;BME280;50685;53.346;-6.296;2023-01-29T06:57:01;102596.56;;;4.89;91.98
64362;BME280;50685;53.346;-6.296;2023-01-29T06:59:26;102596.63;;;4.90;91.94
64362;BME280;50685;53.346;-6.296;2023-01-29T07:01:51;102599.31;;;4.92;91.88
64362;BME280;50685;53.346;-6.296;2023-01-29T07:04:16;102591.50;;;4.93;92.31
64362;BME280;50685;53.346;-6.296;2023-01-29T07:06:42;102587.13;;;4.94;92.52
64362;BME280;50685;53.346;-6.296;2023-01-29T07:09:11;102591.59;;;4.96;92.75
64362;BME280;50685;53.346;-6.296;2023-01-29T07:11:38;102583.72;;;4.96;92.87
64362;BME280;50685;53.346;-6.296;2023-01-29T07:14:03;102588.13;;;4.97;92.90
64362;BME280;50685;53.346;-6.296;2023-01-29T07:16:28;102580.34;;;4.99;93.06
64362;BME280;50685;53.346;-6.296;2023-01-29T07:18:54;102580.44;;;5.02;93.42
64362;BME280;50685;53.346;-6.296;2023-01-29T07:21:19;102572.53;;;5.02;93.32
64362;BME280;50685;53.346;-6.296;2023-01-29T07:23:44;102573.50;;;5.04;93.48
64362;BME280;50685;53.346;-6.296;2023-01-29T07:26:10;102560.38;;;5.04;93.74
64362;BME280;50685;53.346;-6.296;2023-01-29T07:28:36;102559.53;;;5.05;94.26
64362;BME280;50685;53.346;-6.296;2023-01-29T07:31:02;102554.19;;;5.04;94.03
64362;BME280;50685;53.346;-6.296;2023-01-29T07:33:27;102546.28;;;5.04;94.39
64362;BME280;50685;53.346;-6.296;2023-01-29T07:35:52;102550.72;;;5.05;94.60
64362;BME280;50685;53.346;-6.296;2023-01-29T07:38:18;102555.94;;;5.03;94.68
64362;BME280;50685;53.346;-6.296;2023-01-29T07:40:43;102560.38;;;5.04;94.87
64362;BME280;50685;53.346;-6.296;2023-01-29T07:43:08;102552.47;;;5.04;94.67
64362;BME280;50685;53.346;-6.296;2023-01-29T07:45:35;102544.63;;;5.06;94.76
64362;BME280;50685;53.346;-6.296;2023-01-29T07:48:01;102556.03;;;5.06;94.78
64362;BME280;50685;53.346;-6.296;2023-01-29T07:50:28;102555.28;;;5.09;94.71
64362;BME280;50685;53.346;-6.296;2023-01-29T07:52:53;102549.25;;;5.11;94.26
64362;BME280;50685;53.346;-6.296;2023-01-29T07:55:18;102537.03;;;5.13;94.01
64362;BME280;50685;53.346;-6.296;2023-01-29T07:57:44;102535.38;;;5.15;94.09
64362;BME280;50685;53.346;-6.296;2023-01-29T08:00:09;102539.84;;;5.18;94.03
64362;BME280;50685;53.346;-6.296;2023-01-29T08:02:35;102531.22;;;5.22;94.17
64362;BME280;50685;53.346;-6.296;2023-01-29T08:05:01;102543.66;;;5.26;93.95
64362;BME280;50685;53.346;-6.296;2023-01-29T08:07:28;102537.63;;;5.29;93.98
64362;BME280;50685;53.346;-6.296;2023-01-29T08:09:53;102524.56;;;5.32;93.93
64362;BME280;50685;53.346;-6.296;2023-01-29T08:12:18;102528.19;;;5.36;93.97
64362;BME280;50685;53.346;-6.296;2023-01-29T08:14:44;102536.19;;;5.37;93.82
64362;BME280;50685;53.346;-6.296;2023-01-29T08:17:10;102534.47;;;5.39;93.68
64362;BME280;50685;53.346;-6.296;2023-01-29T08:19:35;102525.75;;;5.40;93.89
64362;BME280;50685;53.346;-6.296;2023-01-29T08:22:00;102531.91;;;5.41;93.53
64362;BME280;50685;53.346;-6.296;2023-01-29T08:24:26;102530.22;;;5.43;93.63
64362;BME280;50685;53.346;-6.296;2023-01-29T08:26:51;102532.06;;;5.45;93.64
64362;BME280;50685;53.346;-6.296;2023-01-29T08:29:16;102538.28;;;5.47;93.59
64362;BME280;50685;53.346;-6.296;2023-01-29T08:31:42;102545.34;;;5.49;93.53
64362;BME280;50685;53.346;-6.296;2023-01-29T08:34:07;102534.88;;;5.50;93.79
64362;BME280;50685;53.346;-6.296;2023-01-29T08:36:32;102538.50;;;5.54;93.89
64362;BME280;50685;53.346;-6.296;2023-01-29T08:38:58;102538.56;;;5.55;93.41
64362;BME280;50685;53.346;-6.296;2023-01-29T08:41:24;102536.94;;;5.59;93.52
64362;BME280;50685;53.346;-6.296;2023-01-29T08:43:49;102543.16;;;5.61;93.53
64362;BME280;50685;53.346;-6.296;2023-01-29T08:46:14;102549.38;;;5.63;93.49
64362;BME280;50685;53.346;-6.296;2023-01-29T08:48:39;102531.88;;;5.65;93.56
64362;BME280;50685;53.346;-6.296;2023-01-29T08:51:05;102545.19;;;5.68;93.56
64362;BME280;50685;53.346;-6.296;2023-01-29T08:53:30;102552.25;;;5.69;93.64
64362;BME280;50685;53.346;-6.296;2023-01-29T08:55:55;102553.25;;;5.73;94.25
64362;BME280;50685;53.346;-6.296;2023-01-29T08:58:21;102548.91;;;5.75;93.86
64362;BME280;50685;53.346;-6.296;2023-01-29T09:00:46;102543.59;;;5.73;93.84
64362;BME280;50685;53.346;-6.296;2023-01-29T09:03:11;102534.91;;;5.76;93.80
64362;BME280;50685;53.346;-6.296;2023-01-29T09:05:37;102527.06;;;5.77;94.14
64362;BME280;50685;53.346;-6.296;2023-01-29T09:08:03;102531.53;;;5.80;94.09
64362;BME280;50685;53.346;-6.296;2023-01-29T09:10:28;102534.28;;;5.83;94.35
64362;BME280;50685;53.346;-6.296;2023-01-29T09:12:54;102537.94;;;5.87;94.44
64362;BME280;50685;53.346;-6.296;2023-01-29T09:15:19;102538.00;;;5.90;94.70
64362;BME280;50685;53.346;-6.296;2023-01-29T09:17:44;102536.47;;;5.95;94.61
64362;BME280;50685;53.346;-6.296;2023-01-29T09:20:10;102534.91;;;6.00;94.60
64362;BME280;50685;53.346;-6.296;2023-01-29T09:22:35;102530.66;;;6.04;94.20
64362;BME280;50685;53.346;-6.296;2023-01-29T09:25:00;102537.78;;;6.08;93.89
64362;BME280;50685;53.346;-6.296;2023-01-29T09:27:26;102544.09;;;6.13;93.82
64362;BME280;50685;53.346;-6.296;2023-01-29T09:29:51;102535.38;;;6.14;93.65
64362;BME280;50685;53.346;-6.296;2023-01-29T09:32:17;102535.41;;;6.16;93.51
64362;BME280;50685;53.346;-6.296;2023-01-29T09:34:42;102537.28;;;6.18;93.76
64362;BME280;50685;53.346;-6.296;2023-01-29T09:37:07;102543.56;;;6.22;93.92
64362;BME280;50685;53.346;-6.296;2023-01-29T09:39:32;102544.47;;;6.24;93.93
64362;BME280;50685;53.346;-6.296;2023-01-29T09:42:09;102551.66;;;6.28;94.16
64362;BME280;50685;53.346;-6.296;2023-01-29T09:44:47;102550.00;;;6.32;94.33
64362;BME280;50685;53.346;-6.296;2023-01-29T09:47:17;102546.59;;;6.34;94.39
64362;BME280;50685;53.346;-6.296;2023-01-29T09:49:51;102532.50;;;6.34;94.34
64362;BME280;50685;53.346;-6.296;2023-01-29T09:52:20;102542.09;;;6.32;94.46
64362;BME280;50685;53.346;-6.296;2023-01-29T09:54:51;102544.78;;;6.33;94.60
64362;BME280;50685;53.346;-6.296;2023-01-29T10:00:19;102546.47;;;6.31;94.55
64362;BME280;50685;53.346;-6.296;2023-01-29T10:13:02;102546.59;;;6.34;93.28
64362;BME280;50685;53.346;-6.296;2023-01-29T10:23:26;102540.41;;;6.34;93.57
64362;BME280;50685;53.346;-6.296;2023-01-29T10:25:52;102526.19;;;6.29;93.66
64362;BME280;50685;53.346;-6.296;2023-01-29T10:30:49;102534.44;;;6.39;94.06
64362;BME280;50685;53.346;-6.296;2023-01-29T10:33:17;102524.84;;;6.41;94.17
64362;BME280;50685;53.346;-6.296;2023-01-29T10:35:43;102531.97;;;6.44;93.93
64362;BME280;50685;53.346;-6.296;2023-01-29T10:38:20;102530.25;;;6.46;94.30
64362;BME280;50685;53.346;-6.296;2023-01-29T10:40:55;102524.31;;;6.52;94.46
64362;BME280;50685;53.346;-6.296;2023-01-29T10:43:49;102518.31;;;6.57;94.17
64362;BME280;50685;53.346;-6.296;2023-01-29T10:54:39;102498.53;;;6.70;93.88
64362;BME280;50685;53.346;-6.296;2023-01-29T11:02:01;102477.78;;;6.83;93.93
64362;BME280;50685;53.346;-6.296;2023-01-29T11:04:27;102494.63;;;6.88;93.72
64362;BME280;50685;53.346;-6.296;2023-01-29T11:06:55;102472.53;;;6.83;93.98
64362;BME280;50685;53.346;-6.296;2023-01-29T11:14:21;102464.00;;;6.93;94.32
64362;BME280;50685;53.346;-6.296;2023-01-29T11:16:48;102459.63;;;6.92;94.48
64362;BME280;50685;53.346;-6.296;2023-01-29T11:19:14;102472.81;;;6.92;94.63
64362;BME280;50685;53.346;-6.296;2023-01-29T11:21:54;102457.84;;;6.93;94.73
64362;BME280;50685;53.346;-6.296;2023-01-29T11:24:20;102438.50;;;6.92;94.76
64362;BME280;50685;53.346;-6.296;2023-01-29T11:26:47;102448.19;;;6.93;94.99
64362;BME280;50685;53.346;-6.296;2023-01-29T11:31:53;102436.91;;;6.97;95.00
64362;BME280;50685;53.346;-6.296;2023-01-29T11:34:20;102437.88;;;7.01;95.00
64362;BME280;50685;53.346;-6.296;2023-01-29T11:36:45;102425.59;;;7.03;94.87
64362;BME280;50685;53.346;-6.296;2023-01-29T11:39:13;102423.94;;;7.06;94.63
64362;BME280;50685;53.346;-6.296;2023-01-29T11:41:57;102422.25;;;7.08;94.52
64362;BME280;50685;53.346;-6.296;2023-01-29T11:46:51;102421.59;;;7.16;94.61
64362;BME280;50685;53.346;-6.296;2023-01-29T11:49:32;102416.47;;;7.22;94.42
64362;BME280;50685;53.346;-6.296;2023-01-29T11:51:59;102398.97;;;7.26;94.34
64362;BME280;50685;53.346;-6.296;2023-01-29T11:54:27;102403.53;;;7.31;94.28
64362;BME280;50685;53.346;-6.296;2023-01-29T11:56:54;102387.91;;;7.39;93.89
64362;BME280;50685;53.346;-6.296;2023-01-29T12:04:40;102363.81;;;7.62;93.52
64362;BME280;50685;53.346;-6.296;2023-01-29T12:07:10;102372.03;;;7.74;93.11
64362;BME280;50685;53.346;-6.296;2023-01-29T12:09:36;102355.50;;;7.81;92.66
64362;BME280;50685;53.346;-6.296;2023-01-29T12:12:45;102354.75;;;7.87;92.44
64362;BME280;50685;53.346;-6.296;2023-01-29T12:17:30;102351.59;;;8.03;91.79
64362;BME280;50685;53.346;-6.296;2023-01-29T12:19:58;102320.84;;;8.07;91.52
64362;BME280;50685;53.346;-6.296;2023-01-29T12:22:28;102321.81;;;8.11;91.43
64362;BME280;50685;53.346;-6.296;2023-01-29T12:25:02;102309.50;;;8.11;91.59
64362;BME280;50685;53.346;-6.296;2023-01-29T12:32:44;102288.63;;;8.24;91.53
64362;BME280;50685;53.346;-6.296;2023-01-29T12:35:23;102271.22;;;8.33;91.54
64362;BME280;50685;53.346;-6.296;2023-01-29T12:37:57;102272.38;;;8.48;91.05
64362;BME280;50685;53.346;-6.296;2023-01-29T12:40:28;102262.97;;;8.61;90.31
64362;BME280;50685;53.346;-6.296;2023-01-29T12:42:55;102263.16;;;8.72;89.90
64362;BME280;50685;53.346;-6.296;2023-01-29T12:45:24;102262.59;;;8.90;89.34
64362;BME280;50685;53.346;-6.296;2023-01-29T12:47:56;102262.84;;;9.04;89.12
64362;BME280;50685;53.346;-6.296;2023-01-29T12:50:27;102258.63;;;9.15;88.17
64362;BME280;50685;53.346;-6.296;2023-01-29T12:55:45;102247.47;;;9.35;87.60
64362;BME280;50685;53.346;-6.296;2023-01-29T12:58:15;102240.50;;;9.40;87.13
64362;BME280;50685;53.346;-6.296;2023-01-29T13:00:45;102228.09;;;9.37;87.24
64362;BME280;50685;53.346;-6.296;2023-01-29T13:05:50;102208.09;;;9.58;86.63
64362;BME280;50685;53.346;-6.296;2023-01-29T13:08:22;102218.16;;;9.82;85.61
64362;BME280;50685;53.346;-6.296;2023-01-29T13:10:50;102200.78;;;10.07;84.90
64362;BME280;50685;53.346;-6.296;2023-01-29T13:13:35;102194.91;;;10.35;83.63
64362;BME280;50685;53.346;-6.296;2023-01-29T13:16:06;102197.88;;;10.61;82.50
64362;BME280;50685;53.346;-6.296;2023-01-29T13:21:00;102182.09;;;10.78;81.12
64362;BME280;50685;53.346;-6.296;2023-01-29T13:23:32;102178.69;;;10.91;80.43
64362;BME280;50685;53.346;-6.296;2023-01-29T13:25:59;102164.59;;;10.99;80.24
64362;BME280;50685;53.346;-6.296;2023-01-29T13:28:25;102167.38;;;11.19;79.44
64362;BME280;50685;53.346;-6.296;2023-01-29T13:33:34;102149.84;;;11.47;78.56
64362;BME280;50685;53.346;-6.296;2023-01-29T13:36:00;102144.59;;;11.58;76.99
64362;BME280;50685;53.346;-6.296;2023-01-29T13:38:26;102144.59;;;11.67;76.41
64362;BME280;50685;53.346;-6.296;2023-01-29T13:40:52;102136.66;;;11.72;76.49
64362;BME280;50685;53.346;-6.296;2023-01-29T13:43:20;102150.84;;;11.72;76.65
64362;BME280;50685;53.346;-6.296;2023-01-29T13:45:46;102139.28;;;11.67;76.17
64362;BME280;50685;53.346;-6.296;2023-01-29T13:48:28;102139.34;;;11.80;75.97
64362;BME280;50685;53.346;-6.296;2023-01-29T13:50:59;102116.19;;;11.52;76.21
64362;BME280;50685;53.346;-6.296;2023-01-29T13:53:31;102113.53;;;11.54;76.72
64362;BME280;50685;53.346;-6.296;2023-01-29T14:01:08;102104.03;;;12.09;74.13
64362;BME280;50685;53.346;-6.296;2023-01-29T14:03:43;102098.69;;;12.04;73.77
64362;BME280;50685;53.346;-6.296;2023-01-29T14:06:08;102101.28;;;11.88;74.24
64362;BME280;50685;53.346;-6.296;2023-01-29T14:13:37;102089.47;;;11.18;76.33
64362;BME280;50685;53.346;-6.296;2023-01-29T14:18:27;102053.19;;;11.17;76.32
64362;BME280;50685;53.346;-6.296;2023-01-29T14:21:03;102061.22;;;11.33;75.78
64362;BME280;50685;53.346;-6.296;2023-01-29T14:26:01;102024.16;;;11.87;73.31
64362;BME280;50685;53.346;-6.296;2023-01-29T14:28:28;102018.03;;;11.97;72.36
64362;BME280;50685;53.346;-6.296;2023-01-29T14:30:54;102011.81;;;11.92;72.08
64362;BME280;50685;53.346;-6.296;2023-01-29T14:35:51;102007.34;;;11.82;72.87
64362;BME280;50685;53.346;-6.296;2023-01-29T14:38:18;102017.97;;;11.86;72.49
64362;BME280;50685;53.346;-6.296;2023-01-29T14:40:46;102002.97;;;11.96;71.98
64362;BME280;50685;53.346;-6.296;2023-01-29T14:43:17;101998.47;;;11.83;71.90
64362;BME280;50685;53.346;-6.296;2023-01-29T14:45:45;102009.09;;;11.70;72.42
64362;BME280;50685;53.346;-6.296;2023-01-29T14:58:15;102000.78;;;10.81;76.18
64362;BME280;50685;53.346;-6.296;2023-01-29T15:00:45;102011.31;;;10.68;77.03
64362;BME280;50685;53.346;-6.296;2023-01-29T15:05:51;102013.84;;;10.54;78.01
64362;BME280;50685;53.346;-6.296;2023-01-29T15:10:54;102024.38;;;10.39;78.67
64362;BME280;50685;53.346;-6.296;2023-01-29T15:13:56;102012.81;;;10.34;79.09
64362;BME280;50685;53.346;-6.296;2023-01-29T15:16:28;102004.81;;;10.32;79.21
64362;BME280;50685;53.346;-6.296;2023-01-29T15:18:55;102008.38;;;10.31;79.18
64362;BME280;50685;53.346;-6.296;2023-01-29T15:21:21;102006.63;;;10.35;78.58
64362;BME280;50685;53.346;-6.296;2023-01-29T15:23:46;102008.38;;;10.34;78.57